sensor_id;sensor_type;location;lat;lon;timestamp;temperature;humidity
44229;DHT22;29904;51.058;5.378;2023-11-19T00:00:25;13.40;99.90
44229;DHT22;29904;51.058;5.378;2023-11-19T00:02:51;13.40;99.90
44229;DHT22;29904;51.058;5.378;2023-11-19T00:05:17;13.40;99.90
44229;DHT22;29904;51.058;5.378;2023-11-19T00:07:43;13.40;99.90
44229;DHT22;29904;51.058;5.378;2023-11-19T00:10:13;13.40;99.90
44229;DHT22;29904;51.058;5.378;2023-11-19T00:12:41;13.40;99.90
44229;DHT22;29904;51.058;5.378;2023-11-19T00:15:07;13.40;99.90
44229;DHT22;29904;51.058;5.378;2023-11-19T00:17:37;13.40;99.90
44229;DHT22;29904;51.058;5.378;2023-11-19T00:20:06;13.40;99.90
44229;DHT22;29904;51.058;5.378;2023-11-19T00:22:32;13.40;99.90
44229;DHT22;29904;51.058;5.378;2023-11-19T00:24:58;13.50;99.90
44229;DHT22;29904;51.058;5.378;2023-11-19T00:27:25;13.50;99.90
44229;DHT22;29904;51.058;5.378;2023-11-19T00:29:51;13.50;99.90
44229;DHT22;29904;51.058;5.378;2023-11-19T00:32:17;13.50;99.90
44229;DHT22;29904;51.058;5.378;2023-11-19T00:34:46;13.60;99.90
44229;DHT22;29904;51.058;5.378;2023-11-19T00:37:16;13.60;99.90
44229;DHT22;29904;51.058;5.378;2023-11-19T00:39:42;13.60;99.90
44229;DHT22;29904;51.058;5.378;2023-11-19T00:42:09;13.60;99.90
44229;DHT22;29904;51.058;5.378;2023-11-19T00:44:36;13.60;99.90
44229;DHT22;29904;51.058;5.378;2023-11-19T00:47:02;13.60;99.90
44229;DHT22;29904;51.058;5.378;2023-11-19T00:49:28;13.60;99.90
44229;DHT22;29904;51.058;5.378;2023-11-19T00:51:54;13.60;99.90
44229;DHT22;29904;51.058;5.378;2023-11-19T00:54:19;13.70;99.90
44229;DHT22;29904;51.058;5.378;2023-11-19T00:56:45;13.70;99.90
44229;DHT22;29904;51.058;5.378;2023-11-19T00:59:11;13.70;99.90
44229;DHT22;29904;51.058;5.378;2023-11-19T01:01:37;13.70;99.90
44229;DHT22;29904;51.058;5.378;2023-11-19T01:04:02;13.70;99.90
44229;DHT22;29904;51.058;5.378;2023-11-19T01:06:29;13.70;99.90
44229;DHT22;29904;51.058;5.378;2023-11-19T01:08:56;13.70;99.90
44229;DHT22;29904;51.058;5.378;2023-11-19T01:11:25;13.70;99.90
44229;DHT22;29904;51.058;5.378;2023-11-19T01:13:51;13.80;99.90
44229;DHT22;29904;51.058;5.378;2023-11-19T01:16:18;13.70;99.90
44229;DHT22;29904;51.058;5.378;2023-11-19T01:18:46;13.70;99.90
44229;DHT22;29904;51.058;5.378;2023-11-19T01:21:12;13.80;99.90
44229;DHT22;29904;51.058;5.378;2023-11-19T01:23:37;13.80;99.90
44229;DHT22;29904;51.058;5.378;2023-11-19T01:26:03;13.80;99.90
44229;DHT22;29904;51.058;5.378;2023-11-19T01:28:31;13.80;99.90
44229;DHT22;29904;51.058;5.378;2023-11-19T01:30:56;13.70;99.90
44229;DHT22;29904;51.058;5.378;2023-11-19T01:33:22;13.70;99.90
44229;DHT22;29904;51.058;5.378;2023-11-19T01:35:48;13.70;99.90
44229;DHT22;29904;51.058;5.378;2023-11-19T01:38:13;13.80;99.90
44229;DHT22;29904;51.058;5.378;2023-11-19T01:40:40;13.70;99.90
44229;DHT22;29904;51.058;5.378;2023-11-19T01:43:05;13.70;99.90
44229;DHT22;29904;51.058;5.378;2023-11-19T01:45:31;13.70;99.90
44229;DHT22;29904;51.058;5.378;2023-11-19T01:48:01;13.60;99.90
44229;DHT22;29904;51.058;5.378;2023-11-19T01:50:30;13.60;99.90
44229;DHT22;29904;51.058;5.378;2023-11-19T01:52:57;13.60;99.90
44229;DHT22;29904;51.058;5.378;2023-11-19T01:55:24;13.60;99.90
44229;DHT22;29904;51.058;5.378;2023-11-19T01:57:51;13.70;99.90
44229;DHT22;29904;51.058;5.378;2023-11-19T02:00:19;13.70;99.90
44229;DHT22;29904;51.058;5.378;2023-11-19T02:02:46;13.70;99.90
44229;DHT22;29904;51.058;5.378;2023-11-19T02:05:13;13.70;99.90
44229;DHT22;29904;51.058;5.378;2023-11-19T02:07:39;13.70;99.90
44229;DHT22;29904;51.058;5.378;2023-11-19T02:10:06;13.80;99.90
44229;DHT22;29904;51.058;5.378;2023-11-19T02:12:32;13.80;99.90
44229;DHT22;29904;51.058;5.378;2023-11-19T02:15:02;13.80;99.90
44229;DHT22;29904;51.058;5.378;2023-11-19T02:17:31;13.80;99.90
44229;DHT22;29904;51.058;5.378;2023-11-19T02:19:57;13.80;99.90
44229;DHT22;29904;51.058;5.378;2023-11-19T02:22:23;13.80;99.90
44229;DHT22;29904;51.058;5.378;2023-11-19T02:24:51;13.80;99.90
44229;DHT22;29904;51.058;5.378;2023-11-19T02:30:04;13.80;99.90
44229;DHT22;29904;51.058;5.378;2023-11-19T02:32:34;13.80;99.90
44229;DHT22;29904;51.058;5.378;2023-11-19T02:35:01;13.80;99.90
44229;DHT22;29904;51.058;5.378;2023-11-19T02:37:27;13.80;99.90
44229;DHT22;29904;51.058;5.378;2023-11-19T02:39:54;13.80;99.90
44229;DHT22;29904;51.058;5.378;2023-11-19T02:42:19;13.80;99.90
44229;DHT22;29904;51.058;5.378;2023-11-19T02:44:45;13.80;99.90
44229;DHT22;29904;51.058;5.378;2023-11-19T02:47:11;13.80;99.90
44229;DHT22;29904;51.058;5.378;2023-11-19T02:49:37;13.80;99.90
44229;DHT22;29904;51.058;5.378;2023-11-19T02:52:04;13.70;99.90
44229;DHT22;29904;51.058;5.378;2023-11-19T02:54:31;13.70;99.90
44229;DHT22;29904;51.058;5.378;2023-11-19T02:57:00;13.60;99.90
44229;DHT22;29904;51.058;5.378;2023-11-19T02:59:28;13.60;99.90
44229;DHT22;29904;51.058;5.378;2023-11-19T03:02:07;13.60;99.90
44229;DHT22;29904;51.058;5.378;2023-11-19T03:04:40;13.60;99.90
44229;DHT22;29904;51.058;5.378;2023-11-19T03:07:06;13.60;99.90
44229;DHT22;29904;51.058;5.378;2023-11-19T03:09:35;13.60;99.90
44229;DHT22;29904;51.058;5.378;2023-11-19T03:12:01;13.50;99.90
44229;DHT22;29904;51.058;5.378;2023-11-19T03:14:27;13.40;99.90
44229;DHT22;29904;51.058;5.378;2023-11-19T03:16:53;13.40;99.90
44229;DHT22;29904;51.058;5.378;2023-11-19T03:19:19;13.40;99.90
44229;DHT22;29904;51.058;5.378;2023-11-19T03:21:44;13.30;99.90
44229;DHT22;29904;51.058;5.378;2023-11-19T03:24:12;13.30;99.90
44229;DHT22;29904;51.058;5.378;2023-11-19T03:26:38;13.30;99.90
44229;DHT22;29904;51.058;5.378;2023-11-19T03:29:04;13.40;99.90
44229;DHT22;29904;51.058;5.378;2023-11-19T03:31:30;13.30;99.90
44229;DHT22;29904;51.058;5.378;2023-11-19T03:33:55;13.40;99.90
44229;DHT22;29904;51.058;5.378;2023-11-19T03:36:21;13.40;99.90
44229;DHT22;29904;51.058;5.378;2023-11-19T03:38:47;13.50;99.90
44229;DHT22;29904;51.058;5.378;2023-11-19T03:41:14;13.50;99.90
44229;DHT22;29904;51.058;5.378;2023-11-19T03:43:40;13.50;99.90
44229;DHT22;29904;51.058;5.378;2023-11-19T03:46:19;13.50;99.90
44229;DHT22;29904;51.058;5.378;2023-11-19T03:48:46;13.50;99.90
44229;DHT22;29904;51.058;5.378;2023-11-19T03:51:12;13.50;99.90
44229;DHT22;29904;51.058;5.378;2023-11-19T03:53:44;13.50;99.90
44229;DHT22;29904;51.058;5.378;2023-11-19T03:56:10;13.40;99.90
44229;DHT22;29904;51.058;5.378;2023-11-19T03:58:36;13.40;99.90
44229;DHT22;29904;51.058;5.378;2023-11-19T04:01:04;13.40;99.90
44229;DHT22;29904;51.058;5.378;2023-11-19T04:03:29;13.30;99.90
44229;DHT22;29904;51.058;5.378;2023-11-19T04:05:55;13.30;99.90
44229;DHT22;29904;51.058;5.378;2023-11-19T04:08:22;13.20;99.90
44229;DHT22;29904;51.058;5.378;2023-11-19T04:10:48;13.10;99.90
44229;DHT22;29904;51.058;5.378;2023-11-19T04:13:14;13.10;99.90
44229;DHT22;29904;51.058;5.378;2023-11-19T04:15:39;13.00;99.90
44229;DHT22;29904;51.058;5.378;2023-11-19T04:18:05;13.00;99.90
44229;DHT22;29904;51.058;5.378;2023-11-19T04:20:31;13.00;99.90
44229;DHT22;29904;51.058;5.378;2023-11-19T04:22:57;13.00;99.90
44229;DHT22;29904;51.058;5.378;2023-11-19T04:25:23;13.00;99.90
44229;DHT22;29904;51.058;5.378;2023-11-19T04:27:51;12.90;99.90
44229;DHT22;29904;51.058;5.378;2023-11-19T04:30:17;12.90;99.90
44229;DHT22;29904;51.058;5.378;2023-11-19T04:32:44;13.00;99.90
44229;DHT22;29904;51.058;5.378;2023-11-19T04:35:10;13.00;99.90
44229;DHT22;29904;51.058;5.378;2023-11-19T04:37:36;13.00;99.90
44229;DHT22;29904;51.058;5.378;2023-11-19T04:40:03;13.10;99.90
44229;DHT22;29904;51.058;5.378;2023-11-19T04:42:29;13.10;99.90
44229;DHT22;29904;51.058;5.378;2023-11-19T04:44:55;13.10;99.90
44229;DHT22;29904;51.058;5.378;2023-11-19T04:47:21;13.10;99.90
44229;DHT22;29904;51.058;5.378;2023-11-19T04:49:47;13.10;99.90
44229;DHT22;29904;51.058;5.378;2023-11-19T04:52:12;13.10;99.90
44229;DHT22;29904;51.058;5.378;2023-11-19T04:54:44;13.10;99.90
44229;DHT22;29904;51.058;5.378;2023-11-19T04:57:10;13.00;99.90
44229;DHT22;29904;51.058;5.378;2023-11-19T04:59:38;13.00;99.90
44229;DHT22;29904;51.058;5.378;2023-11-19T05:02:04;13.00;99.90
44229;DHT22;29904;51.058;5.378;2023-11-19T05:04:31;13.00;99.90
44229;DHT22;29904;51.058;5.378;2023-11-19T05:06:56;13.00;99.90
44229;DHT22;29904;51.058;5.378;2023-11-19T05:09:22;13.00;99.90
44229;DHT22;29904;51.058;5.378;2023-11-19T05:11:48;13.00;99.90
44229;DHT22;29904;51.058;5.378;2023-11-19T05:14:14;13.00;99.90
44229;DHT22;29904;51.058;5.378;2023-11-19T05:16:40;12.90;99.90
44229;DHT22;29904;51.058;5.378;2023-11-19T05:19:06;12.90;99.90
44229;DHT22;29904;51.058;5.378;2023-11-19T05:21:32;12.80;99.90
44229;DHT22;29904;51.058;5.378;2023-11-19T05:23:58;12.80;99.90
44229;DHT22;29904;51.058;5.378;2023-11-19T05:26:24;12.70;99.90
44229;DHT22;29904;51.058;5.378;2023-11-19T05:28:50;12.70;99.90
44229;DHT22;29904;51.058;5.378;2023-11-19T05:31:17;12.60;99.90
44229;DHT22;29904;51.058;5.378;2023-11-19T05:33:43;12.50;99.90
44229;DHT22;29904;51.058;5.378;2023-11-19T05:36:11;12.50;99.90
44229;DHT22;29904;51.058;5.378;2023-11-19T05:38:38;12.40;99.90
44229;DHT22;29904;51.058;5.378;2023-11-19T05:41:04;12.40;99.90
44229;DHT22;29904;51.058;5.378;2023-11-19T05:43:31;12.30;99.90
44229;DHT22;29904;51.058;5.378;2023-11-19T05:45:56;12.30;99.90
44229;DHT22;29904;51.058;5.378;2023-11-19T05:48:22;12.20;99.90
44229;DHT22;29904;51.058;5.378;2023-11-19T05:50:48;12.20;99.90
44229;DHT22;29904;51.058;5.378;2023-11-19T05:53:15;12.20;99.90
44229;DHT22;29904;51.058;5.378;2023-11-19T05:55:41;12.10;99.90
44229;DHT22;29904;51.058;5.378;2023-11-19T05:58:22;12.00;99.90
44229;DHT22;29904;51.058;5.378;2023-11-19T06:00:48;12.00;99.90
44229;DHT22;29904;51.058;5.378;2023-11-19T06:03:14;12.00;99.90
44229;DHT22;29904;51.058;5.378;2023-11-19T06:05:39;12.00;99.90
44229;DHT22;29904;51.058;5.378;2023-11-19T06:08:05;12.00;99.90
44229;DHT22;29904;51.058;5.378;2023-11-19T06:10:32;12.00;99.90
44229;DHT22;29904;51.058;5.378;2023-11-19T06:12:59;12.00;99.90
44229;DHT22;29904;51.058;5.378;2023-11-19T06:15:28;11.90;99.90
44229;DHT22;29904;51.058;5.378;2023-11-19T06:17:54;11.90;99.90
44229;DHT22;29904;51.058;5.378;2023-11-19T06:20:20;11.90;99.90
44229;DHT22;29904;51.058;5.378;2023-11-19T06:22:46;11.80;99.90
44229;DHT22;29904;51.058;5.378;2023-11-19T06:25:12;11.80;99.90
44229;DHT22;29904;51.058;5.378;2023-11-19T06:27:41;11.80;99.90
44229;DHT22;29904;51.058;5.378;2023-11-19T06:30:07;11.80;99.90
44229;DHT22;29904;51.058;5.378;2023-11-19T06:32:33;11.70;99.90
44229;DHT22;29904;51.058;5.378;2023-11-19T06:34:59;11.70;99.90
44229;DHT22;29904;51.058;5.378;2023-11-19T06:37:24;11.70;99.90
44229;DHT22;29904;51.058;5.378;2023-11-19T06:39:50;11.60;99.90
44229;DHT22;29904;51.058;5.378;2023-11-19T06:42:16;11.60;99.90
44229;DHT22;29904;51.058;5.378;2023-11-19T06:44:42;11.70;99.90
44229;DHT22;29904;51.058;5.378;2023-11-19T06:47:07;11.70;99.90
44229;DHT22;29904;51.058;5.378;2023-11-19T06:49:33;11.60;99.90
44229;DHT22;29904;51.058;5.378;2023-11-19T06:51:59;11.60;99.90
44229;DHT22;29904;51.058;5.378;2023-11-19T06:54:24;11.60;99.90
44229;DHT22;29904;51.058;5.378;2023-11-19T06:56:50;11.60;99.90
44229;DHT22;29904;51.058;5.378;2023-11-19T06:59:16;11.60;99.90
44229;DHT22;29904;51.058;5.378;2023-11-19T07:01:42;11.60;99.90
44229;DHT22;29904;51.058;5.378;2023-11-19T07:04:12;11.60;99.90
44229;DHT22;29904;51.058;5.378;2023-11-19T07:06:38;11.60;99.90
44229;DHT22;29904;51.058;5.378;2023-11-19T07:09:04;11.60;99.90
44229;DHT22;29904;51.058;5.378;2023-11-19T07:11:44;11.60;99.90
44229;DHT22;29904;51.058;5.378;2023-11-19T07:14:11;11.60;99.90
44229;DHT22;29904;51.058;5.378;2023-11-19T07:16:37;11.70;99.90
44229;DHT22;29904;51.058;5.378;2023-11-19T07:19:04;11.60;99.90
44229;DHT22;29904;51.058;5.378;2023-11-19T07:21:31;11.60;99.90
44229;DHT22;29904;51.058;5.378;2023-11-19T07:23:58;11.50;99.90
44229;DHT22;29904;51.058;5.378;2023-11-19T07:26:24;11.50;99.90
44229;DHT22;29904;51.058;5.378;2023-11-19T07:28:50;11.50;99.90
44229;DHT22;29904;51.058;5.378;2023-11-19T07:31:17;11.50;99.90
44229;DHT22;29904;51.058;5.378;2023-11-19T07:33:45;11.40;99.90
44229;DHT22;29904;51.058;5.378;2023-11-19T07:36:12;11.40;99.90
44229;DHT22;29904;51.058;5.378;2023-11-19T07:38:37;11.40;99.90
44229;DHT22;29904;51.058;5.378;2023-11-19T07:41:07;11.50;99.90
44229;DHT22;29904;51.058;5.378;2023-11-19T07:43:35;11.50;99.90
44229;DHT22;29904;51.058;5.378;2023-11-19T07:46:01;11.60;99.90
44229;DHT22;29904;51.058;5.378;2023-11-19T07:48:27;11.60;99.90
44229;DHT22;29904;51.058;5.378;2023-11-19T07:50:53;11.60;99.90
44229;DHT22;29904;51.058;5.378;2023-11-19T07:53:19;11.60;99.90
44229;DHT22;29904;51.058;5.378;2023-11-19T07:55:45;11.60;99.90
44229;DHT22;29904;51.058;5.378;2023-11-19T07:58:11;11.70;99.90
44229;DHT22;29904;51.058;5.378;2023-11-19T08:00:38;11.70;99.90
44229;DHT22;29904;51.058;5.378;2023-11-19T08:03:04;11.70;99.90
44229;DHT22;29904;51.058;5.378;2023-11-19T08:05:31;11.70;99.90
44229;DHT22;29904;51.058;5.378;2023-11-19T08:07:57;11.70;99.90
44229;DHT22;29904;51.058;5.378;2023-11-19T08:10:24;11.70;99.90
44229;DHT22;29904;51.058;5.378;2023-11-19T08:12:49;11.80;99.90
44229;DHT22;29904;51.058;5.378;2023-11-19T08:15:15;11.80;99.90
44229;DHT22;29904;51.058;5.378;2023-11-19T08:17:41;11.90;99.90
44229;DHT22;29904;51.058;5.378;2023-11-19T08:20:09;11.90;99.90
44229;DHT22;29904;51.058;5.378;2023-11-19T08:22:38;11.90;99.90
44229;DHT22;29904;51.058;5.378;2023-11-19T08:25:07;11.90;99.90
44229;DHT22;29904;51.058;5.378;2023-11-19T08:27:33;12.00;99.90
44229;DHT22;29904;51.058;5.378;2023-11-19T08:29:59;11.90;99.90
44229;DHT22;29904;51.058;5.378;2023-11-19T08:32:26;12.10;99.90
44229;DHT22;29904;51.058;5.378;2023-11-19T08:34:52;12.10;99.90
44229;DHT22;29904;51.058;5.378;2023-11-19T08:37:17;12.10;99.90
44229;DHT22;29904;51.058;5.378;2023-11-19T08:39:49;12.00;99.90
44229;DHT22;29904;51.058;5.378;2023-11-19T08:42:14;12.00;99.90
44229;DHT22;29904;51.058;5.378;2023-11-19T08:44:41;12.00;99.90
44229;DHT22;29904;51.058;5.378;2023-11-19T08:47:10;12.10;99.90
44229;DHT22;29904;51.058;5.378;2023-11-19T08:49:36;12.20;99.90
44229;DHT22;29904;51.058;5.378;2023-11-19T08:52:02;12.20;99.90
44229;DHT22;29904;51.058;5.378;2023-11-19T08:54:28;12.30;99.90
44229;DHT22;29904;51.058;5.378;2023-11-19T08:56:53;12.40;99.90
44229;DHT22;29904;51.058;5.378;2023-11-19T08:59:19;12.50;99.90
44229;DHT22;29904;51.058;5.378;2023-11-19T09:01:45;12.60;99.90
44229;DHT22;29904;51.058;5.378;2023-11-19T09:04:10;12.70;99.90
44229;DHT22;29904;51.058;5.378;2023-11-19T09:06:36;12.80;99.90
44229;DHT22;29904;51.058;5.378;2023-11-19T09:09:02;12.80;99.90
44229;DHT22;29904;51.058;5.378;2023-11-19T09:11:31;12.80;99.90
44229;DHT22;29904;51.058;5.378;2023-11-19T09:13:57;12.90;99.90
44229;DHT22;29904;51.058;5.378;2023-11-19T09:16:23;13.00;99.90
44229;DHT22;29904;51.058;5.378;2023-11-19T09:18:48;13.10;99.90
44229;DHT22;29904;51.058;5.378;2023-11-19T09:21:14;13.20;99.90
44229;DHT22;29904;51.058;5.378;2023-11-19T09:23:40;13.30;99.90
44229;DHT22;29904;51.058;5.378;2023-11-19T09:26:06;13.30;99.90
44229;DHT22;29904;51.058;5.378;2023-11-19T09:28:33;13.30;99.90
44229;DHT22;29904;51.058;5.378;2023-11-19T09:30:59;13.20;99.90
44229;DHT22;29904;51.058;5.378;2023-11-19T09:33:25;13.10;99.90
44229;DHT22;29904;51.058;5.378;2023-11-19T09:35:51;13.10;99.90
44229;DHT22;29904;51.058;5.378;2023-11-19T09:38:17;13.30;99.90
44229;DHT22;29904;51.058;5.378;2023-11-19T09:40:43;13.50;99.90
44229;DHT22;29904;51.058;5.378;2023-11-19T09:43:09;13.60;99.90
44229;DHT22;29904;51.058;5.378;2023-11-19T09:45:48;13.70;99.90
44229;DHT22;29904;51.058;5.378;2023-11-19T09:48:18;13.70;99.90
44229;DHT22;29904;51.058;5.378;2023-11-19T09:50:48;13.70;99.90
44229;DHT22;29904;51.058;5.378;2023-11-19T09:53:15;13.70;99.90
44229;DHT22;29904;51.058;5.378;2023-11-19T09:55:45;13.60;99.90
44229;DHT22;29904;51.058;5.378;2023-11-19T09:58:12;13.50;99.90
44229;DHT22;29904;51.058;5.378;2023-11-19T10:00:40;13.50;99.90
44229;DHT22;29904;51.058;5.378;2023-11-19T10:03:08;13.50;99.90
44229;DHT22;29904;51.058;5.378;2023-11-19T10:05:34;13.60;99.90
44229;DHT22;29904;51.058;5.378;2023-11-19T10:08:01;13.60;99.90
44229;DHT22;29904;51.058;5.378;2023-11-19T10:10:28;13.50;99.90
44229;DHT22;29904;51.058;5.378;2023-11-19T10:12:55;13.50;99.90
44229;DHT22;29904;51.058;5.378;2023-11-19T10:15:22;13.40;99.90
44229;DHT22;29904;51.058;5.378;2023-11-19T10:17:50;13.30;99.90
44229;DHT22;29904;51.058;5.378;2023-11-19T10:20:15;13.30;99.90
44229;DHT22;29904;51.058;5.378;2023-11-19T10:22:41;13.40;99.90
44229;DHT22;29904;51.058;5.378;2023-11-19T10:25:23;13.40;99.90
44229;DHT22;29904;51.058;5.378;2023-11-19T10:27:49;13.50;99.90
44229;DHT22;29904;51.058;5.378;2023-11-19T10:30:29;13.70;99.90
44229;DHT22;29904;51.058;5.378;2023-11-19T10:35:31;14.10;99.90
44229;DHT22;29904;51.058;5.378;2023-11-19T10:38:16;14.30;99.90
44229;DHT22;29904;51.058;5.378;2023-11-19T10:40:42;14.30;99.90
44229;DHT22;29904;51.058;5.378;2023-11-19T10:43:08;14.20;99.90
44229;DHT22;29904;51.058;5.378;2023-11-19T10:45:37;14.20;99.90
44229;DHT22;29904;51.058;5.378;2023-11-19T10:48:04;14.10;99.90
44229;DHT22;29904;51.058;5.378;2023-11-19T10:50:37;14.10;99.90
44229;DHT22;29904;51.058;5.378;2023-11-19T10:53:04;14.20;99.90
44229;DHT22;29904;51.058;5.378;2023-11-19T10:55:32;14.20;99.90
44229;DHT22;29904;51.058;5.378;2023-11-19T10:58:05;14.10;99.90
44229;DHT22;29904;51.058;5.378;2023-11-19T11:00:48;14.00;99.90
44229;DHT22;29904;51.058;5.378;2023-11-19T11:03:21;13.90;99.90
44229;DHT22;29904;51.058;5.378;2023-11-19T11:05:52;13.80;99.90
44229;DHT22;29904;51.058;5.378;2023-11-19T11:08:18;13.80;99.90
44229;DHT22;29904;51.058;5.378;2023-11-19T11:10:46;13.80;99.90
44229;DHT22;29904;51.058;5.378;2023-11-19T11:13:13;14.00;99.90
44229;DHT22;29904;51.058;5.378;2023-11-19T11:15:39;14.10;99.90
44229;DHT22;29904;51.058;5.378;2023-11-19T11:18:09;14.10;99.90
44229;DHT22;29904;51.058;5.378;2023-11-19T11:20:35;14.10;99.90
44229;DHT22;29904;51.058;5.378;2023-11-19T11:28:19;14.00;99.90
44229;DHT22;29904;51.058;5.378;2023-11-19T11:31:01;14.00;99.90
44229;DHT22;29904;51.058;5.378;2023-11-19T11:33:41;14.00;99.90
44229;DHT22;29904;51.058;5.378;2023-11-19T11:36:20;13.90;99.90
44229;DHT22;29904;51.058;5.378;2023-11-19T11:38:49;13.80;99.90
44229;DHT22;29904;51.058;5.378;2023-11-19T11:41:16;13.70;99.90
44229;DHT22;29904;51.058;5.378;2023-11-19T11:54:11;13.70;99.90
44229;DHT22;29904;51.058;5.378;2023-11-19T11:57:11;13.80;99.90
44229;DHT22;29904;51.058;5.378;2023-11-19T11:59:45;13.80;99.90
44229;DHT22;29904;51.058;5.378;2023-11-19T12:02:12;13.80;99.90
44229;DHT22;29904;51.058;5.378;2023-11-19T12:04:40;13.80;99.90
44229;DHT22;29904;51.058;5.378;2023-11-19T12:07:08;13.90;99.90
44229;DHT22;29904;51.058;5.378;2023-11-19T12:09:36;13.80;99.90
44229;DHT22;29904;51.058;5.378;2023-11-19T12:20:04;14.10;99.90
44229;DHT22;29904;51.058;5.378;2023-11-19T12:22:41;14.10;99.90
44229;DHT22;29904;51.058;5.378;2023-11-19T12:25:08;14.10;99.90
44229;DHT22;29904;51.058;5.378;2023-11-19T12:27:35;14.10;99.90
44229;DHT22;29904;51.058;5.378;2023-11-19T12:30:04;14.10;99.90
44229;DHT22;29904;51.058;5.378;2023-11-19T12:32:50;14.10;99.90
44229;DHT22;29904;51.058;5.378;2023-11-19T12:35:16;14.20;99.90
44229;DHT22;29904;51.058;5.378;2023-11-19T12:37:43;14.30;99.90
44229;DHT22;29904;51.058;5.378;2023-11-19T12:42:38;14.60;99.90
44229;DHT22;29904;51.058;5.378;2023-11-19T12:45:05;14.60;99.90
44229;DHT22;29904;51.058;5.378;2023-11-19T12:47:31;14.60;99.90
44229;DHT22;29904;51.058;5.378;2023-11-19T12:49:59;14.50;99.90
44229;DHT22;29904;51.058;5.378;2023-11-19T12:52:25;14.40;99.90
44229;DHT22;29904;51.058;5.378;2023-11-19T12:54:51;14.30;99.90
44229;DHT22;29904;51.058;5.378;2023-11-19T12:57:17;14.20;99.90
44229;DHT22;29904;51.058;5.378;2023-11-19T12:59:57;14.10;99.90
44229;DHT22;29904;51.058;5.378;2023-11-19T13:02:22;13.90;99.90
44229;DHT22;29904;51.058;5.378;2023-11-19T13:04:48;13.70;99.90
44229;DHT22;29904;51.058;5.378;2023-11-19T13:07:20;13.60;99.90
44229;DHT22;29904;51.058;5.378;2023-11-19T13:09:47;13.40;99.90
44229;DHT22;29904;51.058;5.378;2023-11-19T13:12:14;13.30;99.90
44229;DHT22;29904;51.058;5.378;2023-11-19T13:14:40;13.30;99.90
44229;DHT22;29904;51.058;5.378;2023-11-19T13:17:08;13.20;99.90
44229;DHT22;29904;51.058;5.378;2023-11-19T13:19:33;13.00;99.90
44229;DHT22;29904;51.058;5.378;2023-11-19T13:21:59;12.90;99.90
44229;DHT22;29904;51.058;5.378;2023-11-19T13:24:25;12.80;99.90
44229;DHT22;29904;51.058;5.378;2023-11-19T13:26:51;12.80;99.90
44229;DHT22;29904;51.058;5.378;2023-11-19T13:29:16;12.80;99.90
44229;DHT22;29904;51.058;5.378;2023-11-19T13:31:42;12.90;99.90
44229;DHT22;29904;51.058;5.378;2023-11-19T13:34:08;13.00;99.90
44229;DHT22;29904;51.058;5.378;2023-11-19T13:36:34;13.10;99.90
44229;DHT22;29904;51.058;5.378;2023-11-19T13:39:00;13.20;99.90
44229;DHT22;29904;51.058;5.378;2023-11-19T13:41:26;13.30;99.90
44229;DHT22;29904;51.058;5.378;2023-11-19T13:43:52;13.30;99.90
44229;DHT22;29904;51.058;5.378;2023-11-19T13:46:18;13.40;99.90
44229;DHT22;29904;51.058;5.378;2023-11-19T13:48:44;13.40;99.90
44229;DHT22;29904;51.058;5.378;2023-11-19T13:51:10;13.40;99.90
44229;DHT22;29904;51.058;5.378;2023-11-19T13:53:36;13.40;99.90
44229;DHT22;29904;51.058;5.378;2023-11-19T13:56:01;13.30;99.90
44229;DHT22;29904;51.058;5.378;2023-11-19T13:58:27;13.30;99.90
44229;DHT22;29904;51.058;5.378;2023-11-19T14:00:53;13.30;99.90
44229;DHT22;29904;51.058;5.378;2023-11-19T14:03:19;13.20;99.90
44229;DHT22;29904;51.058;5.378;2023-11-19T14:05:45;13.20;99.90
44229;DHT22;29904;51.058;5.378;2023-11-19T14:08:11;13.20;99.90
44229;DHT22;29904;51.058;5.378;2023-11-19T14:10:38;13.20;99.90
44229;DHT22;29904;51.058;5.378;2023-11-19T14:13:07;13.10;99.90
44229;DHT22;29904;51.058;5.378;2023-11-19T14:15:33;13.10;99.90
44229;DHT22;29904;51.058;5.378;2023-11-19T14:17:59;13.10;99.90
44229;DHT22;29904;51.058;5.378;2023-11-19T14:20:24;13.00;99.90
44229;DHT22;29904;51.058;5.378;2023-11-19T14:22:51;13.00;99.90
44229;DHT22;29904;51.058;5.378;2023-11-19T14:25:18;12.90;99.90
44229;DHT22;29904;51.058;5.378;2023-11-19T14:27:44;12.90;99.90
44229;DHT22;29904;51.058;5.378;2023-11-19T14:30:12;12.90;99.90
44229;DHT22;29904;51.058;5.378;2023-11-19T14:32:42;13.00;99.90
44229;DHT22;29904;51.058;5.378;2023-11-19T14:35:10;13.10;99.90
44229;DHT22;29904;51.058;5.378;2023-11-19T14:37:35;13.30;99.90
44229;DHT22;29904;51.058;5.378;2023-11-19T14:40:01;13.30;99.90
44229;DHT22;29904;51.058;5.378;2023-11-19T14:42:31;13.30;99.90
44229;DHT22;29904;51.058;5.378;2023-11-19T14:44:57;13.10;99.90
44229;DHT22;29904;51.058;5.378;2023-11-19T14:47:24;13.00;99.90
44229;DHT22;29904;51.058;5.378;2023-11-19T14:49:50;12.90;99.90
44229;DHT22;29904;51.058;5.378;2023-11-19T14:52:16;12.90;99.90
44229;DHT22;29904;51.058;5.378;2023-11-19T14:54:41;12.90;99.90
44229;DHT22;29904;51.058;5.378;2023-11-19T14:57:07;12.90;99.90
44229;DHT22;29904;51.058;5.378;2023-11-19T14:59:39;12.90;99.90
44229;DHT22;29904;51.058;5.378;2023-11-19T15:02:05;12.90;99.90
44229;DHT22;29904;51.058;5.378;2023-11-19T15:04:33;13.00;99.90
44229;DHT22;29904;51.058;5.378;2023-11-19T15:07:00;13.00;99.90
44229;DHT22;29904;51.058;5.378;2023-11-19T15:09:26;13.00;99.90
44229;DHT22;29904;51.058;5.378;2023-11-19T15:11:55;13.00;99.90
44229;DHT22;29904;51.058;5.378;2023-11-19T15:14:21;12.90;99.90
44229;DHT22;29904;51.058;5.378;2023-11-19T15:16:47;12.90;99.90
44229;DHT22;29904;51.058;5.378;2023-11-19T15:19:13;12.90;99.90
44229;DHT22;29904;51.058;5.378;2023-11-19T15:21:40;12.90;99.90
44229;DHT22;29904;51.058;5.378;2023-11-19T15:24:06;12.90;99.90
44229;DHT22;29904;51.058;5.378;2023-11-19T15:26:34;12.90;99.90
44229;DHT22;29904;51.058;5.378;2023-11-19T15:29:01;12.90;99.90
44229;DHT22;29904;51.058;5.378;2023-11-19T15:31:26;12.80;99.90
44229;DHT22;29904;51.058;5.378;2023-11-19T15:33:52;12.80;99.90
44229;DHT22;29904;51.058;5.378;2023-11-19T15:36:18;12.80;99.90
44229;DHT22;29904;51.058;5.378;2023-11-19T15:38:44;12.80;99.90
44229;DHT22;29904;51.058;5.378;2023-11-19T15:41:10;12.70;99.90
44229;DHT22;29904;51.058;5.378;2023-11-19T15:43:35;12.80;99.90
44229;DHT22;29904;51.058;5.378;2023-11-19T15:46:05;12.80;99.90
44229;DHT22;29904;51.058;5.378;2023-11-19T15:48:30;12.80;99.90
44229;DHT22;29904;51.058;5.378;2023-11-19T15:50:56;12.80;99.90
44229;DHT22;29904;51.058;5.378;2023-11-19T15:53:22;12.80;99.90
44229;DHT22;29904;51.058;5.378;2023-11-19T15:55:48;12.80;99.90
44229;DHT22;29904;51.058;5.378;2023-11-19T15:58:13;12.80;99.90
44229;DHT22;29904;51.058;5.378;2023-11-19T16:00:39;12.90;99.90